Terminal Aerodrome Forecast
Issued by NWS Wilmington, OH

Home | Current Version | Previous Version | Text Only | Print | Product List | Glossary On
Versions: 1 2 3 4 5 6 7 8 9 10 11 12 13 14 15 16 17 18 19 20 21 22 23
344
FTUS41 KILN 242320
TAFILN
TAF
KILN 242320Z 2500/2524 23005KT P6SM SCT250
      TEMPO 2509/2512 4SM BR
     FM251200 26005KT P6SM BKN250
     FM251700 26010KT P6SM VCTS SCT040CB
     FM252100 29007KT P6SM SCT050 SCT100=

USA.gov is the U.S. government's official web portal to all federal, state and local government web resources and services.